createdAt,value
2023-05-19T00:01:20.540Z,36.00
2023-05-19T00:03:57.917Z,31.33
2023-05-19T00:06:31.842Z,37.00
2023-05-19T00:09:02.757Z,39.33
2023-05-19T00:11:30.589Z,38.00
2023-05-19T00:13:59.282Z,37.67
2023-05-19T00:16:28.128Z,42.67
2023-05-19T00:18:55.395Z,38.67
2023-05-19T00:21:22.323Z,34.00
2023-05-19T00:23:49.397Z,37.67
2023-05-19T00:26:16.253Z,35.33
2023-05-19T00:28:53.652Z,30.67
2023-05-19T00:31:20.692Z,30.33
2023-05-19T00:33:47.634Z,31.00
2023-05-19T00:36:14.625Z,27.00
2023-05-19T00:38:41.568Z,28.67
2023-05-19T00:41:08.555Z,30.67
2023-05-19T00:43:35.566Z,24.67
2023-05-19T00:46:03.300Z,26.33
2023-05-19T00:48:30.311Z,24.33
2023-05-19T00:51:02.493Z,24.00
2023-05-19T00:53:30.229Z,24.33
2023-05-19T00:55:58.058Z,26.00
2023-05-19T00:58:29.347Z,33.67
2023-05-19T01:01:04.568Z,21.00
2023-05-19T01:03:35.233Z,18.33
2023-05-19T01:06:06.080Z,27.33
2023-05-19T01:08:34.445Z,25.33
2023-05-19T01:11:02.134Z,25.67
2023-05-19T01:13:30.465Z,25.33
2023-05-19T01:16:06.824Z,20.33
2023-05-19T01:19:01.857Z,22.67
2023-05-19T01:21:44.593Z,22.67
2023-05-19T01:24:30.690Z,25.67
2023-05-19T01:27:35.816Z,21.67
2023-05-19T01:30:23.397Z,30.33
2023-05-19T01:32:53.592Z,31.00
2023-05-19T01:35:24.916Z,33.67
2023-05-19T01:37:58.500Z,40.33
2023-05-19T01:40:26.744Z,32.33
2023-05-19T01:42:59.083Z,29.33
2023-05-19T01:45:30.753Z,40.67
2023-05-19T01:47:59.994Z,39.00
2023-05-19T01:50:28.187Z,33.33
2023-05-19T01:52:55.578Z,36.67
2023-05-19T01:55:23.886Z,41.33
2023-05-19T01:58:00.061Z,42.33
2023-05-19T02:00:36.445Z,43.00
2023-05-19T02:03:41.581Z,33.67
2023-05-19T02:06:08.476Z,40.67
2023-05-19T02:08:45.811Z,35.00
2023-05-19T02:11:19.786Z,32.00
2023-05-19T02:13:51.338Z,34.00
2023-05-19T02:16:20.725Z,33.33
2023-05-19T02:18:48.167Z,31.67
2023-05-19T02:21:15.252Z,39.00
2023-05-19T02:23:42.266Z,32.33
2023-05-19T02:26:09.422Z,29.33
2023-05-19T02:28:36.695Z,24.33
2023-05-19T02:31:06.505Z,18.00
2023-05-19T02:33:33.361Z,23.67
2023-05-19T02:36:00.295Z,25.00
2023-05-19T02:38:27.275Z,22.67
2023-05-19T02:40:54.148Z,27.00
2023-05-19T02:43:21.072Z,31.00
2023-05-19T02:45:48.023Z,27.33
2023-05-19T02:48:14.969Z,26.00
2023-05-19T02:50:43.074Z,33.00
2023-05-19T02:53:10.010Z,32.33
2023-05-19T02:55:37.382Z,30.67
2023-05-19T02:58:04.298Z,29.33
2023-05-19T03:00:31.508Z,32.67
2023-05-19T03:03:02.836Z,46.00
2023-05-19T03:05:32.713Z,31.67
2023-05-19T03:07:59.624Z,24.00
2023-05-19T03:10:26.611Z,30.00
2023-05-19T03:12:53.587Z,25.67
2023-05-19T03:15:22.954Z,23.67
2023-05-19T03:17:50.040Z,28.33
2023-05-19T03:20:17.129Z,23.33
2023-05-19T03:22:44.212Z,25.00
2023-05-19T03:25:11.145Z,26.33
2023-05-19T03:27:38.150Z,22.00
2023-05-19T03:30:06.981Z,24.00
2023-05-19T03:32:40.174Z,32.67
2023-05-19T03:35:07.550Z,35.00
2023-05-19T03:37:34.812Z,28.67
2023-05-19T03:40:02.449Z,27.00
2023-05-19T03:42:30.152Z,29.00
2023-05-19T03:44:57.171Z,22.00
2023-05-19T03:47:24.341Z,27.00
2023-05-19T03:50:10.473Z,25.33
2023-05-19T03:52:57.040Z,29.33
2023-05-19T03:55:30.079Z,26.00
2023-05-19T03:57:57.453Z,26.67
2023-05-19T04:00:24.561Z,23.33
2023-05-19T04:02:51.928Z,25.67
2023-05-19T04:05:19.105Z,23.67
2023-05-19T04:07:46.944Z,29.67
2023-05-19T04:10:13.946Z,26.67
2023-05-19T04:12:41.372Z,29.67
2023-05-19T04:15:11.466Z,28.00
2023-05-19T04:17:38.781Z,23.33
2023-05-19T04:20:06.724Z,23.33
2023-05-19T04:22:33.959Z,20.33
2023-05-19T04:25:00.945Z,26.00
2023-05-19T04:27:30.102Z,27.33
2023-05-19T04:29:58.193Z,27.33
2023-05-19T04:32:25.946Z,25.33
2023-05-19T04:34:54.350Z,24.33
2023-05-19T04:37:28.466Z,22.67
2023-05-19T04:39:55.789Z,22.67
2023-05-19T04:42:26.362Z,22.67
2023-05-19T04:44:54.788Z,24.33
2023-05-19T04:47:28.203Z,21.00
2023-05-19T04:49:55.925Z,22.67
2023-05-19T04:52:23.831Z,25.33
2023-05-19T04:54:53.004Z,26.33
2023-05-19T04:57:20.193Z,31.33
2023-05-19T04:59:47.167Z,32.00
2023-05-19T05:02:16.320Z,28.00
2023-05-19T05:04:44.134Z,29.67
2023-05-19T05:07:11.223Z,31.33
2023-05-19T05:09:38.862Z,62.00
2023-05-19T05:12:08.107Z,37.67
2023-05-19T05:14:37.352Z,35.67
2023-05-19T05:17:04.947Z,32.00
2023-05-19T05:19:32.953Z,31.00
2023-05-19T05:22:00.688Z,40.00
2023-05-19T05:24:28.125Z,38.67
2023-05-19T05:26:59.474Z,38.67
2023-05-19T05:29:27.022Z,34.00
2023-05-19T05:31:54.419Z,29.67
2023-05-19T05:34:22.226Z,33.00
2023-05-19T05:36:49.153Z,32.00
2023-05-19T05:39:17.232Z,36.00
2023-05-19T05:41:45.417Z,27.67
2023-05-19T05:44:12.877Z,35.33
2023-05-19T05:46:42.133Z,28.00
2023-05-19T05:49:10.270Z,29.33
2023-05-19T05:51:37.604Z,31.33
2023-05-19T05:54:06.688Z,27.00
2023-05-19T05:56:38.105Z,30.67
2023-05-19T05:59:08.020Z,29.33
2023-05-19T06:01:36.336Z,27.00
2023-05-19T06:04:05.448Z,39.33
2023-05-19T06:06:32.916Z,37.33
2023-05-19T06:09:02.140Z,40.33
2023-05-19T06:11:30.239Z,33.67
2023-05-19T06:13:58.967Z,32.00
2023-05-19T06:17:04.372Z,25.00
2023-05-19T06:19:31.982Z,34.67
2023-05-19T06:21:58.907Z,29.67
2023-05-19T06:24:26.962Z,28.67
2023-05-19T06:26:53.889Z,29.00
2023-05-19T06:29:21.061Z,26.00
2023-05-19T06:31:49.651Z,33.00
2023-05-19T06:34:17.890Z,39.33
2023-05-19T06:36:46.957Z,42.33
2023-05-19T06:39:14.450Z,37.00
2023-05-19T06:41:41.472Z,34.00
2023-05-19T06:44:11.329Z,26.00
2023-05-19T06:46:38.332Z,29.33
2023-05-19T06:49:05.532Z,34.00
2023-05-19T06:51:37.489Z,30.33
2023-05-19T06:54:04.502Z,36.33
2023-05-19T06:56:31.544Z,48.67
2023-05-19T06:58:58.588Z,39.67
2023-05-19T07:01:31.918Z,20.00
2023-05-19T07:03:59.592Z,31.33
2023-05-19T07:06:26.755Z,23.33
2023-05-19T07:08:53.834Z,27.33
2023-05-19T07:11:21.841Z,35.33
2023-05-19T07:13:49.191Z,29.67
2023-05-19T07:16:22.742Z,22.00
2023-05-19T07:18:49.779Z,40.00
2023-05-19T07:21:16.849Z,32.00
2023-05-19T07:23:43.861Z,34.67
2023-05-19T07:26:11.768Z,49.00
2023-05-19T07:28:40.790Z,30.33
2023-05-19T07:31:08.577Z,23.00
2023-05-19T07:33:35.519Z,31.00
2023-05-19T07:36:02.603Z,25.25
2023-05-19T07:38:31.534Z,27.00
2023-05-19T07:40:58.485Z,28.00
2023-05-19T07:43:25.593Z,25.33
2023-05-19T07:45:53.779Z,22.25
2023-05-19T07:48:22.531Z,46.67
2023-05-19T07:50:49.692Z,27.00
2023-05-19T07:53:16.855Z,25.50
2023-05-19T07:55:43.897Z,22.25
2023-05-19T07:58:10.864Z,30.33
2023-05-19T08:00:38.114Z,24.25
2023-05-19T08:03:05.108Z,25.75
2023-05-19T08:05:32.201Z,22.25
2023-05-19T08:07:59.138Z,22.75
2023-05-19T08:10:26.098Z,22.00
2023-05-19T08:12:54.460Z,21.50
2023-05-19T08:15:21.891Z,20.25
2023-05-19T08:17:49.198Z,25.00
2023-05-19T08:20:16.345Z,19.50
2023-05-19T08:22:43.327Z,19.00
2023-05-19T08:25:10.489Z,15.75
2023-05-19T08:27:37.383Z,17.50
2023-05-19T08:30:04.619Z,19.25
2023-05-19T08:32:31.652Z,20.75
2023-05-19T08:34:59.803Z,17.33
2023-05-19T08:37:26.732Z,28.00
2023-05-19T08:39:53.716Z,20.25
2023-05-19T08:42:20.650Z,32.75
2023-05-19T08:44:47.601Z,23.50
2023-05-19T08:47:15.356Z,23.50
2023-05-19T08:49:47.366Z,22.25
2023-05-19T08:52:23.416Z,18.00
2023-05-19T08:54:55.941Z,22.50
2023-05-19T08:57:25.099Z,19.00
2023-05-19T08:59:53.370Z,26.50
2023-05-19T09:02:21.649Z,26.50
2023-05-19T09:04:49.537Z,27.75
2023-05-19T09:07:16.824Z,21.50
2023-05-19T09:09:44.129Z,22.25
2023-05-19T09:12:11.772Z,24.50
2023-05-19T09:14:39.163Z,21.75
2023-05-19T09:17:06.765Z,21.75
2023-05-19T09:19:34.020Z,25.50
2023-05-19T09:22:03.882Z,30.50
2023-05-19T09:24:31.767Z,25.25
2023-05-19T09:27:00.274Z,31.25
2023-05-19T09:29:27.389Z,23.25
2023-05-19T09:32:01.726Z,28.25
2023-05-19T09:34:28.746Z,26.50
2023-05-19T09:36:55.653Z,27.25
2023-05-19T09:39:23.608Z,28.50
2023-05-19T09:41:54.813Z,24.00
2023-05-19T09:44:28.977Z,26.50
2023-05-19T09:46:56.534Z,27.25
2023-05-19T09:49:25.478Z,35.25
2023-05-19T09:51:57.262Z,27.00
2023-05-19T09:54:25.553Z,40.25
2023-05-19T09:57:03.826Z,27.25
2023-05-19T09:59:33.730Z,32.00
2023-05-19T10:02:02.524Z,28.50
2023-05-19T10:04:31.289Z,29.25
2023-05-19T10:07:05.655Z,31.75
2023-05-19T10:09:34.231Z,26.00
2023-05-19T10:12:02.470Z,29.00
2023-05-19T10:14:30.138Z,28.25
2023-05-19T10:17:00.280Z,29.75
2023-05-19T10:19:29.237Z,29.50
2023-05-19T10:21:56.903Z,33.00
2023-05-19T10:24:23.958Z,20.50
2023-05-19T10:26:56.557Z,31.25
2023-05-19T10:29:28.953Z,31.75
2023-05-19T10:31:59.936Z,28.00
2023-05-19T10:35:24.197Z,27.75
2023-05-19T10:38:18.443Z,32.50
2023-05-19T10:40:55.161Z,30.50
2023-05-19T10:43:36.420Z,29.25
2023-05-19T10:46:05.257Z,30.00
2023-05-19T10:48:38.649Z,27.75
2023-05-19T10:51:06.199Z,27.00
2023-05-19T10:53:33.587Z,19.25
2023-05-19T10:56:07.000Z,28.25
2023-05-19T10:58:36.923Z,25.50
2023-05-19T11:01:17.049Z,24.25
2023-05-19T11:03:57.081Z,30.25
2023-05-19T11:06:30.241Z,27.50
2023-05-19T11:08:58.167Z,28.75
2023-05-19T11:11:25.145Z,26.00
2023-05-19T11:13:56.454Z,27.50
2023-05-19T11:16:32.429Z,23.50
2023-05-19T11:19:00.277Z,24.25
2023-05-19T11:21:52.777Z,27.50
2023-05-19T11:24:53.010Z,26.50
2023-05-19T11:27:38.347Z,26.75
2023-05-19T11:30:14.645Z,27.25
2023-05-19T11:32:45.067Z,30.25
2023-05-19T11:35:12.651Z,26.75
2023-05-19T11:37:40.756Z,25.25
2023-05-19T11:40:08.312Z,30.75
2023-05-19T11:42:37.179Z,29.50
2023-05-19T11:45:06.519Z,27.00
2023-05-19T11:47:42.579Z,24.25
2023-05-19T11:50:20.354Z,29.75
2023-05-19T11:52:48.028Z,22.25
2023-05-19T11:55:25.331Z,27.25
2023-05-19T11:58:05.647Z,19.75
2023-05-19T12:00:38.044Z,27.75
2023-05-19T12:03:06.013Z,25.25
2023-05-19T12:05:39.908Z,30.00
2023-05-19T12:08:09.181Z,28.50
2023-05-19T12:10:36.494Z,26.75
2023-05-19T12:13:03.704Z,26.25
2023-05-19T12:15:31.941Z,25.50
2023-05-19T12:18:03.553Z,27.25
2023-05-19T12:20:36.045Z,26.50
2023-05-19T12:23:04.182Z,22.50
2023-05-19T12:25:32.105Z,30.00
2023-05-19T12:28:02.990Z,28.50
2023-05-19T12:30:31.689Z,29.25
2023-05-19T12:32:59.052Z,26.75
2023-05-19T12:35:30.586Z,26.25
2023-05-19T12:38:02.384Z,20.75
2023-05-19T12:40:30.182Z,25.25
2023-05-19T12:42:59.325Z,26.00
2023-05-19T12:45:28.581Z,28.75
2023-05-19T12:47:56.207Z,31.25
2023-05-19T12:50:31.035Z,29.75
2023-05-19T12:53:00.027Z,24.25
2023-05-19T12:55:27.118Z,24.25
2023-05-19T12:57:58.026Z,30.50
2023-05-19T13:00:29.299Z,27.50
2023-05-19T13:03:05.710Z,27.50
2023-05-19T13:05:38.323Z,27.25
2023-05-19T13:08:06.820Z,32.25
2023-05-19T13:10:35.502Z,28.75
2023-05-19T13:13:03.223Z,22.00
2023-05-19T13:15:34.459Z,27.25
2023-05-19T13:18:03.601Z,28.50
2023-05-19T13:20:31.118Z,31.25
2023-05-19T13:22:58.365Z,25.75
2023-05-19T13:25:25.794Z,32.25
2023-05-19T13:27:52.930Z,31.75
2023-05-19T13:30:21.056Z,29.50
2023-05-19T13:32:48.442Z,34.00
2023-05-19T13:35:15.981Z,26.25
2023-05-19T13:37:43.158Z,30.75
2023-05-19T13:40:11.216Z,28.50
2023-05-19T13:42:38.320Z,28.50
2023-05-19T13:45:05.682Z,25.25
2023-05-19T13:47:32.766Z,28.75
2023-05-19T13:49:59.826Z,26.75
2023-05-19T13:52:28.373Z,29.75
2023-05-19T13:54:57.738Z,26.75
2023-05-19T13:57:25.613Z,29.50
2023-05-19T14:00:01.807Z,27.75
2023-05-19T14:02:39.945Z,29.00
2023-05-19T14:05:07.570Z,27.25
2023-05-19T14:07:35.206Z,32.75
2023-05-19T14:10:06.936Z,23.25
2023-05-19T14:12:45.068Z,25.50
2023-05-19T14:15:19.886Z,28.50
2023-05-19T14:17:49.046Z,29.50
2023-05-19T14:20:16.240Z,32.00
2023-05-19T14:22:43.261Z,33.75
2023-05-19T14:25:10.429Z,28.25
2023-05-19T14:27:37.575Z,30.50
2023-05-19T14:30:04.858Z,31.00
2023-05-19T14:32:31.785Z,23.00
2023-05-19T14:34:58.732Z,27.00
2023-05-19T14:37:28.910Z,30.00
2023-05-19T14:39:57.139Z,24.50
2023-05-19T14:42:24.461Z,26.50
2023-05-19T14:44:51.367Z,16.00
2023-05-19T14:47:18.220Z,30.25
2023-05-19T14:49:45.107Z,26.50
2023-05-19T14:52:11.972Z,28.00
2023-05-19T14:54:38.918Z,23.50
2023-05-19T14:57:07.345Z,28.50
2023-05-19T14:59:37.949Z,31.00
2023-05-19T15:02:05.525Z,29.00
2023-05-19T15:04:32.469Z,22.25
2023-05-19T15:09:30.711Z,37.25
2023-05-19T15:11:58.111Z,27.75
2023-05-19T15:14:25.256Z,29.75
2023-05-19T15:16:53.141Z,31.75
2023-05-19T15:19:20.148Z,32.00
2023-05-19T15:21:50.581Z,29.25
2023-05-19T15:24:17.543Z,29.25
2023-05-19T15:26:44.494Z,31.25
2023-05-19T15:29:11.430Z,31.00
2023-05-19T15:31:38.733Z,27.00
2023-05-19T15:34:05.910Z,29.75
2023-05-19T15:36:32.831Z,23.25
2023-05-19T15:38:59.917Z,28.75
2023-05-19T15:41:26.835Z,24.50
2023-05-19T15:43:53.994Z,29.50
2023-05-19T15:46:21.071Z,34.25
2023-05-19T15:48:48.053Z,31.75
2023-05-19T15:51:15.156Z,29.25
2023-05-19T15:53:42.084Z,31.25
2023-05-19T15:56:08.955Z,26.00
2023-05-19T15:58:35.895Z,23.00
2023-05-19T16:01:03.153Z,31.33
2023-05-19T16:03:30.228Z,28.75
2023-05-19T16:05:57.779Z,25.67
2023-05-19T16:08:25.306Z,27.00
2023-05-19T16:10:52.365Z,35.33
2023-05-19T16:13:19.255Z,26.75
2023-05-19T16:15:46.218Z,33.33
2023-05-19T16:18:13.273Z,29.67
2023-05-19T16:20:40.478Z,26.33
2023-05-19T16:23:07.556Z,29.00
2023-05-19T16:25:34.575Z,32.00
2023-05-19T16:28:01.605Z,28.33
2023-05-19T16:30:28.491Z,32.33
2023-05-19T16:32:55.469Z,31.33
2023-05-19T16:35:22.776Z,37.33
2023-05-19T16:37:49.901Z,39.67
2023-05-19T16:40:16.887Z,41.00
2023-05-19T16:42:43.750Z,46.00
2023-05-19T16:45:10.750Z,48.67
2023-05-19T16:47:37.778Z,39.67
2023-05-19T16:50:04.927Z,39.33
2023-05-19T16:52:31.911Z,44.67
2023-05-19T16:54:58.851Z,43.00
2023-05-19T16:57:25.824Z,44.33
2023-05-19T16:59:53.457Z,42.33
2023-05-19T17:02:20.396Z,47.33
2023-05-19T17:04:47.353Z,35.67
2023-05-19T17:07:17.594Z,38.33
2023-05-19T17:09:44.872Z,40.00
2023-05-19T17:12:11.733Z,53.00
2023-05-19T17:14:38.677Z,44.33
2023-05-19T17:17:05.836Z,50.33
2023-05-19T17:19:32.943Z,48.00
2023-05-19T17:22:00.043Z,50.33
2023-05-19T17:24:28.901Z,40.00
2023-05-19T17:26:55.943Z,44.00
2023-05-19T17:29:22.991Z,40.00
2023-05-19T17:31:49.960Z,37.33
2023-05-19T17:34:16.850Z,52.33
2023-05-19T17:36:43.733Z,42.33
2023-05-19T17:39:10.821Z,40.33
2023-05-19T17:41:37.805Z,52.33
2023-05-19T17:44:06.792Z,45.00
2023-05-19T17:46:38.831Z,46.33
2023-05-19T17:49:06.487Z,53.33
2023-05-19T17:51:33.990Z,48.00
2023-05-19T17:54:01.170Z,52.33
2023-05-19T17:56:31.945Z,53.67
2023-05-19T17:58:59.037Z,52.67
2023-05-19T18:01:26.299Z,52.00
2023-05-19T18:03:53.534Z,58.33
2023-05-19T18:06:20.981Z,53.67
2023-05-19T18:08:50.702Z,57.00
2023-05-19T18:11:18.696Z,58.67
2023-05-19T18:13:45.797Z,54.33
2023-05-19T18:16:12.906Z,51.67
2023-05-19T18:18:43.573Z,63.00
2023-05-19T18:21:17.766Z,55.67
2023-05-19T18:23:46.086Z,65.00
2023-05-19T18:26:13.231Z,68.75
2023-05-19T18:28:41.324Z,62.00
2023-05-19T18:31:17.433Z,66.25
2023-05-19T18:33:45.536Z,63.50
2023-05-19T18:36:13.646Z,61.67
2023-05-19T18:38:41.254Z,63.75
2023-05-19T18:41:08.459Z,60.50
2023-05-19T18:43:35.600Z,63.00
2023-05-19T18:46:02.623Z,59.00
2023-05-19T18:48:29.677Z,61.75
2023-05-19T18:50:57.366Z,75.75
2023-05-19T18:53:24.307Z,70.25
2023-05-19T18:55:51.413Z,74.50
2023-05-19T18:58:18.882Z,72.00
2023-05-19T19:00:45.988Z,70.75
2023-05-19T19:03:13.029Z,65.25
2023-05-19T19:05:40.238Z,61.50
2023-05-19T19:08:07.163Z,69.00
2023-05-19T19:10:38.992Z,63.50
2023-05-19T19:13:06.393Z,71.50
2023-05-19T19:15:33.378Z,74.75
2023-05-19T19:18:00.593Z,72.00
2023-05-19T19:20:27.697Z,68.75
2023-05-19T19:22:54.718Z,60.00
2023-05-19T19:25:23.560Z,66.25
2023-05-19T19:27:51.301Z,65.75
2023-05-19T19:30:19.620Z,66.50
2023-05-19T19:32:46.541Z,56.75
2023-05-19T19:35:13.591Z,62.75
2023-05-19T19:37:40.490Z,62.50
2023-05-19T19:40:07.934Z,62.50
2023-05-19T19:42:35.180Z,61.75
2023-05-19T19:45:02.285Z,61.75
2023-05-19T19:47:29.370Z,57.00
2023-05-19T19:49:56.489Z,62.25
2023-05-19T19:52:23.743Z,61.50
2023-05-19T19:54:50.677Z,56.00
2023-05-19T19:57:17.590Z,59.25
2023-05-19T19:59:44.804Z,62.00
2023-05-19T20:02:11.870Z,59.00
2023-05-19T20:04:38.863Z,64.25
2023-05-19T20:07:05.930Z,61.00
2023-05-19T20:09:32.822Z,50.25
2023-05-19T20:11:59.811Z,60.75
2023-05-19T20:14:26.853Z,55.00
2023-05-19T20:16:53.791Z,61.00
2023-05-19T20:19:21.166Z,59.25
2023-05-19T20:21:48.086Z,55.50
2023-05-19T20:24:15.149Z,68.75
2023-05-19T20:26:42.077Z,60.75
2023-05-19T20:29:08.979Z,60.75
2023-05-19T20:31:35.904Z,61.25
2023-05-19T20:34:02.894Z,59.50
2023-05-19T20:36:29.864Z,62.25
2023-05-19T20:38:56.812Z,60.75
2023-05-19T20:41:23.775Z,55.50
2023-05-19T20:43:51.016Z,58.25
2023-05-19T20:46:18.045Z,58.25
2023-05-19T20:48:45.015Z,62.50
2023-05-19T20:51:11.924Z,59.75
2023-05-19T20:53:38.871Z,60.75
2023-05-19T20:56:06.905Z,63.75
2023-05-19T20:58:33.885Z,61.75
2023-05-19T21:01:00.826Z,64.25
2023-05-19T21:03:29.057Z,69.50
2023-05-19T21:05:56.518Z,57.00
2023-05-19T21:08:23.837Z,78.75
2023-05-19T21:10:51.364Z,62.00
2023-05-19T21:13:18.997Z,60.75
2023-05-19T21:15:46.833Z,61.50
2023-05-19T21:18:14.005Z,60.75
2023-05-19T21:20:41.004Z,64.75
2023-05-19T21:23:07.880Z,59.50
2023-05-19T21:25:34.931Z,64.25
2023-05-19T21:28:01.827Z,66.50
2023-05-19T21:30:28.871Z,61.00
2023-05-19T21:32:55.902Z,62.50
2023-05-19T21:35:23.002Z,59.50
2023-05-19T21:37:49.920Z,59.25
2023-05-19T21:40:16.915Z,63.00
2023-05-19T21:42:43.844Z,62.25
2023-05-19T21:45:11.220Z,69.75
2023-05-19T21:47:38.277Z,61.25
2023-05-19T21:50:05.612Z,80.00
2023-05-19T21:52:32.640Z,57.75
2023-05-19T21:54:59.527Z,56.75
2023-05-19T21:57:26.446Z,53.00
2023-05-19T21:59:53.409Z,56.25
2023-05-19T22:02:21.274Z,60.50
2023-05-19T22:04:48.217Z,92.75
2023-05-19T22:07:15.228Z,60.00
2023-05-19T22:09:42.244Z,64.75
2023-05-19T22:12:09.409Z,79.00
2023-05-19T22:14:36.531Z,66.50
2023-05-19T22:17:03.580Z,64.00
2023-05-19T22:19:30.557Z,59.00
2023-05-19T22:22:09.804Z,56.25
2023-05-19T22:24:40.794Z,62.00
2023-05-19T22:27:08.383Z,58.25
2023-05-19T22:29:38.443Z,56.75
2023-05-19T22:32:07.719Z,56.50
2023-05-19T22:34:34.819Z,59.75
2023-05-19T22:37:02.025Z,57.50
2023-05-19T22:39:28.984Z,58.75
2023-05-19T22:41:56.077Z,61.00
2023-05-19T22:44:23.054Z,58.75
2023-05-19T22:46:49.973Z,59.75
2023-05-19T22:49:16.947Z,60.75
2023-05-19T22:51:43.886Z,57.25
2023-05-19T22:54:10.851Z,57.00
2023-05-19T22:56:37.947Z,56.25
2023-05-19T22:59:04.836Z,59.50
2023-05-19T23:01:31.796Z,64.50
2023-05-19T23:03:58.731Z,60.50
2023-05-19T23:06:25.820Z,61.50
2023-05-19T23:09:01.130Z,57.00
2023-05-19T23:11:28.328Z,57.75
2023-05-19T23:13:55.268Z,59.25
2023-05-19T23:16:22.772Z,66.25
2023-05-19T23:18:49.799Z,60.25
2023-05-19T23:21:16.654Z,55.75
2023-05-19T23:23:43.610Z,64.75
2023-05-19T23:26:13.348Z,62.00
2023-05-19T23:28:42.171Z,69.25
2023-05-19T23:31:09.553Z,59.00
2023-05-19T23:33:36.684Z,62.50
2023-05-19T23:36:09.358Z,64.75
2023-05-19T23:38:37.692Z,65.00
2023-05-19T23:41:05.649Z,62.50
2023-05-19T23:43:32.782Z,66.25
2023-05-19T23:46:00.231Z,62.50
2023-05-19T23:48:29.002Z,61.75
2023-05-19T23:50:57.090Z,64.25
2023-05-19T23:53:24.587Z,67.25
2023-05-19T23:55:51.723Z,68.50
2023-05-19T23:58:18.833Z,64.50
